Time;durP1;ratioP1;P1;durP2;ratioP2;P2;SDS_P1;SDS_P2;PMS_P1;PMS_P2;Temp;Humidity;BMP_temperature;BMP_pressure;BME280_temperature;BME280_humidity;BME280_pressure;Samples;Min_cycle;Max_cycle;Signal;HPM_P1;HPM_P2
2022/07/18 00:00:23;;;;;;;2.42;1.45;;;20.70;60.60;;;;;;6217477;23;20223;-64
2022/07/18 00:02:48;;;;;;;2.78;1.40;;;20.70;60.80;;;;;;6215942;23;20163;-67
2022/07/18 00:05:14;;;;;;;3.05;1.50;;;20.70;61.00;;;;;;6215343;23;20196;-67
2022/07/18 00:07:44;;;;;;;2.78;1.38;;;20.60;61.20;;;;;;6213848;23;20153;-68
2022/07/18 00:10:12;;;;;;;1.55;1.20;;;20.60;61.60;;;;;;6213853;23;20149;-68
2022/07/18 00:12:38;;;;;;;1.60;1.17;;;20.60;61.30;;;;;;6214215;23;20150;-67
2022/07/18 00:15:07;;;;;;;2.28;1.30;;;20.60;61.50;;;;;;6212962;23;20161;-67
2022/07/18 00:17:33;;;;;;;1.80;1.25;;;20.60;62.20;;;;;;6216185;23;20188;-67
2022/07/18 00:19:59;;;;;;;1.80;1.17;;;20.50;61.70;;;;;;6213201;23;20178;-68
2022/07/18 00:22:24;;;;;;;1.73;1.10;;;20.50;61.90;;;;;;6214596;23;20154;-67
2022/07/18 00:24:52;;;;;;;2.65;1.40;;;20.50;62.60;;;;;;6215011;23;20154;-68
2022/07/18 00:27:18;;;;;;;1.77;1.30;;;20.50;62.50;;;;;;6214841;23;20169;-66
2022/07/18 00:29:43;;;;;;;3.40;1.35;;;20.50;62.60;;;;;;6213184;23;20163;-66
2022/07/18 00:32:14;;;;;;;1.67;1.17;;;20.40;62.70;;;;;;6216000;23;20184;-67
2022/07/18 00:34:42;;;;;;;1.77;1.15;;;20.40;63.20;;;;;;6212992;23;20173;-67
2022/07/18 00:37:07;;;;;;;1.98;1.00;;;20.40;62.90;;;;;;6215987;23;20156;-65
2022/07/18 00:39:35;;;;;;;2.20;1.23;;;20.40;63.10;;;;;;6215194;23;20158;-66
2022/07/18 00:42:01;;;;;;;1.75;1.30;;;20.40;63.60;;;;;;6214307;23;20153;-68
2022/07/18 00:44:28;;;;;;;2.30;1.20;;;20.30;63.20;;;;;;6217568;23;20165;-65
2022/07/18 00:46:59;;;;;;;1.45;1.20;;;20.30;63.30;;;;;;6216369;23;20149;-68
2022/07/18 00:49:28;;;;;;;2.72;1.30;;;20.30;63.40;;;;;;6215545;23;20158;-67
2022/07/18 00:51:54;;;;;;;1.88;1.20;;;20.30;63.80;;;;;;6215194;23;20201;-67
2022/07/18 00:54:20;;;;;;;2.03;1.20;;;20.20;63.60;;;;;;6213713;23;20272;-68
2022/07/18 00:56:50;;;;;;;1.73;1.15;;;20.20;63.80;;;;;;6213346;23;20203;-67
2022/07/18 00:59:18;;;;;;;1.25;1.10;;;20.10;63.90;;;;;;6215800;23;20180;-67
2022/07/18 01:01:45;;;;;;;2.28;1.33;;;20.10;64.10;;;;;;6213971;23;20158;-67
2022/07/18 01:04:21;;;;;;;2.25;1.17;;;20.10;64.80;;;;;;6213415;23;20154;-68
2022/07/18 01:06:48;;;;;;;1.83;1.13;;;20.00;64.30;;;;;;6212974;23;20177;-66
2022/07/18 01:09:16;;;;;;;1.50;1.02;;;20.00;64.30;;;;;;6214753;23;20169;-68
2022/07/18 01:11:46;;;;;;;1.83;1.13;;;20.00;64.60;;;;;;6214702;23;20185;-68
2022/07/18 01:14:15;;;;;;;2.53;1.38;;;20.00;64.90;;;;;;6213240;23;20204;-69
2022/07/18 01:16:43;;;;;;;1.50;1.10;;;19.90;64.80;;;;;;6215259;23;20157;-67
2022/07/18 01:19:10;;;;;;;2.67;1.20;;;19.90;64.90;;;;;;6212506;23;20182;-68
2022/07/18 01:21:37;;;;;;;1.40;1.10;;;19.90;65.10;;;;;;6213096;23;20157;-68
2022/07/18 01:24:03;;;;;;;2.53;1.27;;;19.90;65.20;;;;;;6214937;23;20160;-67
2022/07/18 01:26:30;;;;;;;1.95;1.10;;;19.90;65.50;;;;;;6213663;23;20196;-68
2022/07/18 01:28:58;;;;;;;2.65;1.30;;;19.80;65.50;;;;;;6213762;23;20284;-68
2022/07/18 01:31:24;;;;;;;1.55;1.20;;;19.80;65.70;;;;;;6214778;23;20161;-68
2022/07/18 01:33:56;;;;;;;1.58;1.02;;;19.80;66.00;;;;;;6213976;23;20181;-68
2022/07/18 01:36:24;;;;;;;1.80;1.00;;;19.80;66.60;;;;;;6216504;23;20169;-66
2022/07/18 01:38:49;;;;;;;3.83;1.13;;;19.70;66.00;;;;;;6215136;23;20177;-68
2022/07/18 01:41:18;;;;;;;2.30;1.23;;;19.70;66.30;;;;;;6215364;23;20211;-66
2022/07/18 01:43:44;;;;;;;1.52;1.20;;;19.70;66.90;;;;;;6214706;23;20173;-66
2022/07/18 01:46:10;;;;;;;2.08;1.15;;;19.60;66.60;;;;;;6213669;23;20153;-69
2022/07/18 01:48:40;;;;;;;4.50;1.30;;;19.60;66.60;;;;;;6215353;23;20160;-68
2022/07/18 01:51:09;;;;;;;2.92;1.30;;;19.60;67.20;;;;;;6212846;23;20157;-68
2022/07/18 01:53:38;;;;;;;2.08;1.20;;;19.60;66.90;;;;;;6213705;23;20280;-69
2022/07/18 01:56:05;;;;;;;1.90;1.33;;;19.60;66.90;;;;;;6214580;23;20152;-68
2022/07/18 01:58:30;;;;;;;1.58;1.10;;;19.50;67.50;;;;;;6214319;23;20237;-67
2022/07/18 02:00:56;;;;;;;2.20;1.20;;;19.40;67.20;;;;;;6213933;23;20173;-69
2022/07/18 02:03:24;;;;;;;2.03;1.00;;;19.40;67.40;;;;;;6213710;23;20199;-68
2022/07/18 02:05:49;;;;;;;2.42;1.08;;;19.40;67.60;;;;;;6212306;23;20157;-69
2022/07/18 02:08:18;;;;;;;2.05;1.25;;;19.40;68.00;;;;;;6212354;23;20153;-69
2022/07/18 02:10:43;;;;;;;2.70;1.27;;;19.40;68.50;;;;;;6212794;23;20166;-65
2022/07/18 02:13:13;;;;;;;2.28;1.33;;;19.40;68.30;;;;;;6212820;23;20245;-68
2022/07/18 02:15:39;;;;;;;2.20;1.10;;;19.30;68.80;;;;;;6212943;23;20181;-68
2022/07/18 02:18:07;;;;;;;2.83;1.33;;;19.30;68.60;;;;;;6213460;23;20200;-68
2022/07/18 02:20:32;;;;;;;1.98;1.38;;;19.30;68.70;;;;;;6213685;23;20193;-68
2022/07/18 02:23:00;;;;;;;1.98;1.10;;;19.30;68.90;;;;;;6212303;23;20153;-66
2022/07/18 02:25:26;;;;;;;1.30;1.00;;;19.30;69.40;;;;;;6213744;23;20209;-68
2022/07/18 02:27:52;;;;;;;2.63;1.38;;;19.20;69.20;;;;;;6212468;23;20311;-69
2022/07/18 02:30:17;;;;;;;2.33;1.10;;;19.20;69.40;;;;;;6212131;23;20545;-67
2022/07/18 02:32:46;;;;;;;1.92;1.15;;;19.20;69.50;;;;;;6211719;23;20185;-68
2022/07/18 02:35:16;;;;;;;2.97;1.35;;;19.20;70.20;;;;;;6214145;23;20157;-68
2022/07/18 02:37:41;;;;;;;1.58;1.10;;;19.20;70.20;;;;;;6213340;23;20284;-69
2022/07/18 02:40:09;;;;;;;2.00;1.20;;;19.10;69.90;;;;;;6213382;23;20204;-67
2022/07/18 02:42:38;;;;;;;1.30;1.10;;;19.10;70.20;;;;;;6214015;23;20169;-68
2022/07/18 02:45:07;;;;;;;1.63;1.10;;;19.10;70.10;;;;;;6189974;23;20149;-66
2022/07/18 02:47:35;;;;;;;1.98;1.27;;;19.10;70.90;;;;;;6190584;23;20193;-66
2022/07/18 02:50:03;;;;;;;1.98;1.10;;;19.00;70.40;;;;;;6190687;23;20153;-67
2022/07/18 02:52:29;;;;;;;1.40;1.00;;;19.00;70.40;;;;;;6189322;23;20264;-67
2022/07/18 02:54:56;;;;;;;1.92;1.33;;;19.00;70.50;;;;;;6189613;23;20199;-66
2022/07/18 02:57:22;;;;;;;1.92;1.30;;;18.90;70.50;;;;;;6190165;23;20161;-69
2022/07/18 02:59:50;;;;;;;2.75;1.08;;;18.90;70.60;;;;;;6189818;23;20173;-69
2022/07/18 03:02:16;;;;;;;2.13;1.20;;;18.90;71.20;;;;;;6189707;23;20149;-68
2022/07/18 03:04:44;;;;;;;2.15;1.20;;;18.90;71.00;;;;;;6190253;23;20153;-68
2022/07/18 03:07:09;;;;;;;1.40;1.10;;;18.90;71.10;;;;;;6190098;23;20188;-83
2022/07/18 03:09:35;;;;;;;1.80;1.20;;;18.90;71.20;;;;;;6191526;23;20175;-77
2022/07/18 03:12:01;;;;;;;1.95;1.40;;;18.80;71.30;;;;;;6191350;23;20200;-85
2022/07/18 03:14:26;;;;;;;2.00;1.30;;;18.80;71.30;;;;;;6194545;23;20153;-84
2022/07/18 03:16:52;;;;;;;1.30;1.15;;;18.80;71.30;;;;;;6192092;23;20150;-81
2022/07/18 03:19:18;;;;;;;1.65;1.10;;;18.80;71.60;;;;;;6190520;23;20220;-81
2022/07/18 03:21:46;;;;;;;1.20;1.10;;;18.80;71.60;;;;;;6192400;23;20224;-80
2022/07/18 03:24:13;;;;;;;2.15;1.25;;;18.80;72.00;;;;;;6197107;23;20507;-77
2022/07/18 03:26:42;;;;;;;5.07;3.90;;;18.70;71.60;;;;;;6194827;23;20312;-82
2022/07/18 03:29:09;;;;;;;4.65;2.90;;;18.70;72.00;;;;;;6194709;23;20225;-81
2022/07/18 03:31:37;;;;;;;3.28;2.50;;;18.70;72.00;;;;;;6195322;23;20173;-78
2022/07/18 03:34:03;;;;;;;3.28;2.10;;;18.70;72.10;;;;;;6194134;23;20149;-80
2022/07/18 03:36:29;;;;;;;14.90;10.55;;;18.60;72.20;;;;;;6195820;23;20149;-78
2022/07/18 03:38:56;;;;;;;10.43;8.73;;;18.60;72.40;;;;;;6190681;23;20189;-84
2022/07/18 03:41:22;;;;;;;6.50;4.40;;;18.60;72.50;;;;;;6189020;23;20213;-85
2022/07/18 03:43:48;;;;;;;4.07;3.10;;;18.60;72.70;;;;;;6209415;23;20199;-80
2022/07/18 03:46:15;;;;;;;3.47;2.47;;;18.50;72.80;;;;;;6219576;23;20153;-80
2022/07/18 03:48:46;;;;;;;3.15;2.22;;;18.50;72.90;;;;;;6218956;23;20149;-83
2022/07/18 03:51:15;;;;;;;2.67;2.00;;;18.50;73.40;;;;;;6219132;23;20188;-79
2022/07/18 03:53:43;;;;;;;3.22;2.10;;;18.50;73.20;;;;;;6220711;23;20236;-84
2022/07/18 03:56:09;;;;;;;3.40;2.00;;;18.50;73.80;;;;;;6217205;23;20157;-83
2022/07/18 03:58:34;;;;;;;3.05;1.75;;;18.40;73.50;;;;;;6216903;23;20268;-76
2022/07/18 04:01:00;;;;;;;2.33;1.70;;;18.40;73.80;;;;;;6217230;23;20153;-80
2022/07/18 04:03:26;;;;;;;2.22;1.67;;;18.40;73.70;;;;;;6220273;23;20188;-76
2022/07/18 04:05:52;;;;;;;2.30;1.80;;;18.40;73.90;;;;;;6215891;23;20153;-84
2022/07/18 04:08:18;;;;;;;2.83;2.00;;;18.50;74.10;;;;;;6222922;23;20175;-74
2022/07/18 04:10:48;;;;;;;2.95;2.20;;;18.40;74.10;;;;;;6219931;23;20405;-79
2022/07/18 04:13:13;;;;;;;3.22;1.55;;;18.40;74.50;;;;;;6220495;23;20235;-79
2022/07/18 04:15:40;;;;;;;2.90;1.80;;;18.40;74.20;;;;;;6218356;23;20188;-82
2022/07/18 04:18:08;;;;;;;2.17;1.58;;;18.40;74.30;;;;;;6215647;23;20180;-86
2022/07/18 04:20:38;;;;;;;2.75;1.50;;;18.40;74.80;;;;;;6221361;23;20175;-80
2022/07/18 04:23:09;;;;;;;1.65;1.35;;;18.40;74.80;;;;;;6219719;23;20470;-83
2022/07/18 04:25:39;;;;;;;2.00;1.42;;;18.40;74.60;;;;;;6218821;23;20256;-83
2022/07/18 04:28:10;;;;;;;7.53;6.18;;;18.40;75.00;;;;;;6215468;23;20173;-82
2022/07/18 04:30:37;;;;;;;4.38;3.45;;;18.40;75.50;;;;;;6217593;23;20168;-73
2022/07/18 04:33:06;;;;;;;4.07;2.83;;;18.50;75.20;;;;;;6215258;23;20157;-83
2022/07/18 04:35:32;;;;;;;3.72;2.08;;;18.40;75.30;;;;;;6214798;23;20213;-84
2022/07/18 04:37:58;;;;;;;3.72;1.65;;;18.50;75.50;;;;;;6218934;23;20403;-82
2022/07/18 04:40:24;;;;;;;2.42;1.67;;;18.50;75.60;;;;;;6216873;23;20424;-82
2022/07/18 04:42:50;;;;;;;3.60;1.60;;;18.50;75.80;;;;;;6216679;23;20161;-78
2022/07/18 04:45:15;;;;;;;2.58;1.40;;;18.50;76.10;;;;;;6214015;23;20153;-84
2022/07/18 04:47:46;;;;;;;2.72;1.40;;;18.50;76.30;;;;;;6217576;23;20259;-82
2022/07/18 04:50:14;;;;;;;2.97;1.50;;;18.50;76.90;;;;;;6221203;23;20153;-78
2022/07/18 04:52:42;;;;;;;2.45;1.40;;;18.50;77.20;;;;;;6214514;23;20265;-83
2022/07/18 04:55:14;;;;;;;3.17;1.40;;;18.60;77.30;;;;;;6220074;23;20239;-82
2022/07/18 04:57:40;;;;;;;2.15;1.40;;;18.60;77.70;;;;;;6213560;23;20180;-83
2022/07/18 05:00:11;;;;;;;1.95;1.35;;;18.60;77.50;;;;;;6215758;23;20161;-84
2022/07/18 05:02:44;;;;;;;2.15;1.20;;;18.60;77.80;;;;;;6215024;23;20142;-81
2022/07/18 05:05:13;;;;;;;2.63;1.40;;;18.70;78.50;;;;;;6215194;23;20152;-74
2022/07/18 05:07:43;;;;;;;1.50;1.20;;;18.70;78.00;;;;;;6213050;23;20157;-83
2022/07/18 05:10:14;;;;;;;2.50;1.27;;;18.70;78.60;;;;;;6212412;23;20161;-81
2022/07/18 05:12:44;;;;;;;3.85;1.35;;;18.80;78.80;;;;;;6216717;23;20178;-82
2022/07/18 05:15:15;;;;;;;2.42;1.40;;;18.80;78.30;;;;;;6212996;23;20161;-80
2022/07/18 05:17:42;;;;;;;3.65;1.30;;;18.90;78.70;;;;;;6213383;23;20547;-76
2022/07/18 05:20:14;;;;;;;2.30;1.50;;;18.90;78.60;;;;;;6214354;23;20192;-77
2022/07/18 05:22:40;;;;;;;4.65;1.27;;;18.90;79.10;;;;;;6221827;23;20146;-81
2022/07/18 05:25:09;;;;;;;2.20;1.10;;;19.00;79.30;;;;;;6214832;23;20177;-78
2022/07/18 05:27:38;;;;;;;1.45;1.20;;;19.00;79.30;;;;;;6214714;23;20153;-81
2022/07/18 05:30:08;;;;;;;2.10;1.20;;;19.10;79.60;;;;;;6219846;23;20161;-83
2022/07/18 05:32:36;;;;;;;2.67;1.50;;;19.10;79.80;;;;;;6221709;23;20188;-79
2022/07/18 05:35:02;;;;;;;3.35;1.50;;;19.20;79.80;;;;;;6215920;23;20176;-84
2022/07/18 05:37:28;;;;;;;2.03;1.20;;;19.20;80.10;;;;;;6214911;23;20181;-80
2022/07/18 05:39:53;;;;;;;1.80;1.30;;;19.20;80.30;;;;;;6214586;23;20183;-85
2022/07/18 05:42:19;;;;;;;2.67;1.75;;;19.30;80.40;;;;;;6224459;23;20138;-72
2022/07/18 05:44:45;;;;;;;2.80;1.60;;;19.30;80.40;;;;;;6192731;23;20149;-81
2022/07/18 05:47:11;;;;;;;1.80;1.40;;;19.40;80.50;;;;;;6193474;23;20261;-82
2022/07/18 05:49:37;;;;;;;2.03;1.42;;;19.40;80.60;;;;;;6189294;23;20167;-76
2022/07/18 05:52:02;;;;;;;2.88;1.70;;;19.50;80.70;;;;;;6188982;23;20161;-83
2022/07/18 05:54:28;;;;;;;2.45;1.42;;;19.60;80.70;;;;;;6188854;23;20181;-88
2022/07/18 05:56:54;;;;;;;2.67;1.42;;;19.60;80.70;;;;;;6192138;23;20153;-72
2022/07/18 05:59:21;;;;;;;2.42;1.48;;;19.70;80.60;;;;;;6194305;23;20165;-68
2022/07/18 06:01:47;;;;;;;1.60;1.30;;;19.80;80.40;;;;;;6196429;23;20173;-72
2022/07/18 06:04:13;;;;;;;3.13;1.60;;;19.90;80.30;;;;;;6189459;23;20158;-73
2022/07/18 06:06:41;;;;;;;1.88;1.30;;;19.90;80.20;;;;;;6191361;23;20173;-72
2022/07/18 06:09:08;;;;;;;4.18;1.20;;;20.00;80.20;;;;;;6195181;23;20154;-72
2022/07/18 06:11:34;;;;;;;1.88;1.30;;;20.00;80.40;;;;;;6196735;23;20161;-72
2022/07/18 06:14:02;;;;;;;2.38;1.15;;;20.10;80.20;;;;;;6189449;23;20292;-69
2022/07/18 06:16:33;;;;;;;1.75;1.20;;;20.20;80.40;;;;;;6194144;23;20161;-67
2022/07/18 06:19:01;;;;;;;2.10;1.35;;;20.20;80.60;;;;;;6193387;23;20174;-73
2022/07/18 06:21:29;;;;;;;1.77;1.13;;;20.30;80.50;;;;;;6191731;23;20149;-68
2022/07/18 06:23:55;;;;;;;2.25;1.35;;;20.30;80.50;;;;;;6192121;23;20153;-72
2022/07/18 06:26:21;;;;;;;2.20;1.20;;;20.40;80.40;;;;;;6191579;23;20160;-72
2022/07/18 06:28:47;;;;;;;2.55;1.33;;;20.50;80.40;;;;;;6199491;23;20153;-73
2022/07/18 06:31:16;;;;;;;2.20;1.20;;;20.60;80.50;;;;;;6191985;23;20229;-72
2022/07/18 06:33:44;;;;;;;2.22;1.13;;;20.60;80.30;;;;;;6189778;23;20195;-73
2022/07/18 06:36:13;;;;;;;1.60;1.40;;;20.70;80.40;;;;;;6188949;23;20145;-72
2022/07/18 06:38:39;;;;;;;4.78;1.40;;;20.80;80.40;;;;;;6189057;23;20437;-71
2022/07/18 06:41:08;;;;;;;2.85;1.67;;;20.90;80.50;;;;;;6189469;23;20199;-71
2022/07/18 06:43:34;;;;;;;2.83;1.27;;;20.90;80.20;;;;;;6200202;23;20264;-72
2022/07/18 06:45:59;;;;;;;2.55;1.27;;;21.00;80.20;;;;;;6214145;23;20185;-70
2022/07/18 06:48:26;;;;;;;2.20;1.15;;;21.10;80.00;;;;;;6213161;23;20181;-73
2022/07/18 06:50:54;;;;;;;1.40;1.08;;;21.20;79.80;;;;;;6215777;23;20154;-73
2022/07/18 06:53:19;;;;;;;2.50;1.05;;;21.30;79.60;;;;;;6214851;23;20162;-73
2022/07/18 06:55:47;;;;;;;1.35;1.08;;;21.40;79.50;;;;;;6214799;23;20192;-80
2022/07/18 06:58:15;;;;;;;2.50;1.20;;;21.50;79.30;;;;;;6215558;23;20188;-81
2022/07/18 07:00:40;;;;;;;3.67;1.50;;;21.60;79.20;;;;;;6216856;23;20236;-86
2022/07/18 07:03:11;;;;;;;2.30;1.50;;;21.70;78.70;;;;;;6216959;23;20154;-87
2022/07/18 07:05:39;;;;;;;1.90;1.30;;;21.80;78.40;;;;;;6215440;23;20149;-79
2022/07/18 07:08:04;;;;;;;1.80;1.30;;;21.90;78.00;;;;;;6214909;23;20181;-82
2022/07/18 07:10:32;;;;;;;1.52;1.10;;;22.00;77.60;;;;;;6214807;23;20153;-81
2022/07/18 07:12:58;;;;;;;3.72;1.23;;;22.10;77.80;;;;;;6215187;23;20164;-79
2022/07/18 07:15:24;;;;;;;2.08;1.00;;;22.20;77.10;;;;;;6216678;23;20335;-79
2022/07/18 07:17:51;;;;;;;1.77;1.08;;;22.40;76.70;;;;;;6214233;23;20181;-76
2022/07/18 07:20:21;;;;;;;2.53;1.05;;;22.50;76.60;;;;;;6214920;23;20181;-81
2022/07/18 07:22:57;;;;;;;4.07;1.45;;;22.60;76.40;;;;;;6220976;23;20368;-82
2022/07/18 07:25:27;;;;;;;2.60;1.27;;;22.70;75.00;;;;;;6217816;23;20149;-83
2022/07/18 07:27:53;;;;;;;1.60;1.10;;;22.80;75.70;;;;;;6227490;23;20188;-87
2022/07/18 07:30:19;;;;;;;4.03;1.13;;;23.00;75.60;;;;;;6217030;23;20157;-88
2022/07/18 07:32:47;;;;;;;1.77;0.95;;;23.10;75.50;;;;;;6220142;23;20148;-82
2022/07/18 07:35:17;;;;;;;2.15;1.00;;;23.20;74.90;;;;;;6222968;23;20161;-80
2022/07/18 07:37:55;;;;;;;3.45;1.20;;;23.30;74.30;;;;;;6216470;23;20237;-84
2022/07/18 07:40:25;;;;;;;3.13;1.00;;;23.40;73.90;;;;;;6213856;23;20184;-76
2022/07/18 07:42:52;;;;;;;2.15;1.23;;;23.60;72.60;;;;;;6213431;23;20169;-75
2022/07/18 07:45:18;;;;;;;2.20;0.98;;;23.70;72.70;;;;;;6214240;23;20169;-75
2022/07/18 07:47:46;;;;;;;2.63;1.08;;;23.80;72.40;;;;;;6215650;23;20157;-75
2022/07/18 07:50:13;;;;;;;1.90;0.98;;;23.90;71.40;;;;;;6214900;23;20232;-75
2022/07/18 07:52:38;;;;;;;1.63;0.90;;;24.10;71.50;;;;;;6216733;23;20204;-75
2022/07/18 07:55:05;;;;;;;3.78;1.27;;;24.20;71.70;;;;;;6218060;23;20187;-75
2022/07/18 07:57:31;;;;;;;2.42;1.00;;;24.30;71.00;;;;;;6224179;23;20145;-75
2022/07/18 07:59:57;;;;;;;5.55;1.38;;;24.40;70.70;;;;;;6220327;23;20180;-70
2022/07/18 08:02:25;;;;;;;4.82;1.13;;;24.50;69.20;;;;;;6220457;23;20165;-74
2022/07/18 08:04:50;;;;;;;2.88;1.23;;;24.60;69.00;;;;;;6215326;23;20200;-74
2022/07/18 08:07:20;;;;;;;2.38;1.40;;;24.70;68.20;;;;;;6220466;23;20229;-72
2022/07/18 08:09:46;;;;;;;1.45;1.00;;;24.80;68.00;;;;;;6222467;23;20161;-74
2022/07/18 08:12:11;;;;;;;3.70;1.08;;;24.90;68.50;;;;;;6218819;23;20256;-72
2022/07/18 08:14:39;;;;;;;2.67;1.23;;;25.00;68.20;;;;;;6215624;23;20169;-70
2022/07/18 08:17:08;;;;;;;1.33;0.85;;;25.20;68.30;;;;;;6226397;23;20161;-72
2022/07/18 08:19:36;;;;;;;1.92;1.02;;;25.20;68.60;;;;;;6224072;23;20193;-72
2022/07/18 08:22:01;;;;;;;2.80;1.00;;;25.30;67.30;;;;;;6216935;23;20169;-77
2022/07/18 08:24:27;;;;;;;2.03;0.90;;;25.40;66.90;;;;;;6224035;23;20153;-72
2022/07/18 08:26:53;;;;;;;1.48;0.98;;;25.50;66.70;;;;;;6218154;23;20244;-75
2022/07/18 08:29:20;;;;;;;2.15;1.00;;;25.60;66.40;;;;;;6222781;23;20164;-74
2022/07/18 08:31:48;;;;;;;1.63;1.02;;;25.70;66.50;;;;;;6216825;23;20252;-74
2022/07/18 08:34:14;;;;;;;1.80;0.90;;;25.80;66.10;;;;;;6227082;23;20365;-74
2022/07/18 08:36:40;;;;;;;1.25;1.00;;;25.90;65.50;;;;;;6218666;23;20252;-74
2022/07/18 08:39:07;;;;;;;1.42;0.90;;;25.90;65.60;;;;;;6215456;23;20197;-69
2022/07/18 08:41:35;;;;;;;1.33;0.80;;;26.00;65.50;;;;;;6220978;23;20153;-75
2022/07/18 08:44:07;;;;;;;3.67;0.93;;;26.10;65.40;;;;;;6223357;23;20166;-77
2022/07/18 08:46:38;;;;;;;1.27;0.80;;;26.20;64.30;;;;;;6219698;23;20157;-78
2022/07/18 08:49:05;;;;;;;1.20;0.90;;;26.30;64.80;;;;;;6220492;23;20176;-75
2022/07/18 08:51:33;;;;;;;1.77;0.90;;;26.40;65.00;;;;;;6217271;23;20211;-73
2022/07/18 08:54:00;;;;;;;2.25;1.10;;;26.50;64.60;;;;;;6223193;23;20221;-68
2022/07/18 08:56:26;;;;;;;2.05;1.10;;;26.60;64.60;;;;;;6222648;23;20168;-72
2022/07/18 08:58:56;;;;;;;1.90;0.90;;;26.70;64.30;;;;;;6223794;23;20224;-73
2022/07/18 09:01:25;;;;;;;1.00;0.90;;;26.80;63.80;;;;;;6219638;23;20145;-74
2022/07/18 09:04:14;;;;;;;3.05;1.00;;;26.90;63.40;;;;;;6222310;23;20161;-73
2022/07/18 09:06:49;;;;;;;1.60;0.95;;;27.00;63.40;;;;;;6223159;23;20168;-67
2022/07/18 09:09:21;;;;;;;2.35;1.20;;;27.10;60.70;;;;;;6215280;23;20244;-73
2022/07/18 09:11:59;;;;;;;1.48;0.90;;;27.20;62.80;;;;;;6217926;23;20193;-72
2022/07/18 09:14:31;;;;;;;2.95;1.10;;;27.40;61.60;;;;;;6219495;23;20157;-76
2022/07/18 09:17:10;;;;;;;2.80;0.95;;;27.50;62.20;;;;;;6214666;23;20153;-73
2022/07/18 09:19:37;;;;;;;2.22;1.13;;;27.60;60.70;;;;;;6214339;23;20177;-74
2022/07/18 09:22:22;;;;;;;1.73;0.98;;;27.70;61.20;;;;;;6218556;23;20150;-72
2022/07/18 09:24:50;;;;;;;4.45;0.90;;;27.80;58.30;;;;;;6221668;23;20169;-75
2022/07/18 09:27:36;;;;;;;2.15;1.20;;;27.90;60.00;;;;;;6214383;23;20232;-74
2022/07/18 09:30:25;;;;;;;2.00;1.15;;;28.10;59.50;;;;;;6215442;23;20160;-73
2022/07/18 09:33:03;;;;;;;1.92;1.20;;;28.20;58.70;;;;;;6214006;23;20153;-74
2022/07/18 09:35:35;;;;;;;1.38;1.00;;;28.30;58.40;;;;;;6216342;23;20149;-73
2022/07/18 09:38:05;;;;;;;1.63;0.85;;;28.40;59.10;;;;;;6214400;23;20270;-73
2022/07/18 09:40:36;;;;;;;1.52;0.85;;;28.50;58.10;;;;;;6221162;23;20165;-73
2022/07/18 09:43:10;;;;;;;3.40;1.00;;;28.60;58.00;;;;;;6218943;23;20241;-74
2022/07/18 09:45:41;;;;;;;2.20;0.70;;;28.70;57.20;;;;;;6223849;23;20223;-70
2022/07/18 09:48:11;;;;;;;1.55;0.77;;;28.80;57.40;;;;;;6217947;23;20188;-74
2022/07/18 09:50:41;;;;;;;1.70;0.85;;;28.90;57.00;;;;;;6226560;23;20188;-77
2022/07/18 09:53:14;;;;;;;1.20;0.73;;;29.00;56.60;;;;;;6223452;23;20144;-76
2022/07/18 09:55:48;;;;;;;2.28;1.00;;;29.10;56.00;;;;;;6227087;23;20156;-76
2022/07/18 09:58:17;;;;;;;1.75;1.00;;;29.30;55.10;;;;;;6228011;23;20199;-73
2022/07/18 10:00:43;;;;;;;3.00;0.93;;;29.40;55.80;;;;;;6228995;23;20220;-73
2022/07/18 10:03:09;;;;;;;0.80;0.80;;;29.50;55.70;;;;;;6229148;23;20176;-77
2022/07/18 10:05:37;;;;;;;1.35;0.80;;;29.60;55.10;;;;;;6218198;23;20169;-77
2022/07/18 10:08:06;;;;;;;1.60;1.10;;;29.70;54.30;;;;;;6224089;23;20168;-80
2022/07/18 10:10:33;;;;;;;1.85;1.20;;;29.90;54.10;;;;;;6226417;23;20156;-74
2022/07/18 10:13:04;;;;;;;1.02;0.85;;;30.00;53.90;;;;;;6220776;23;20157;-72
2022/07/18 10:15:37;;;;;;;3.00;1.20;;;30.20;52.90;;;;;;6224231;23;20236;-72
2022/07/18 10:18:09;;;;;;;2.28;0.90;;;30.30;53.40;;;;;;6227362;23;20185;-78
2022/07/18 10:20:42;;;;;;;1.42;0.88;;;30.40;53.30;;;;;;6228850;23;20163;-68
2022/07/18 10:23:27;;;;;;;2.40;0.90;;;30.60;52.20;;;;;;6227432;23;20145;-75
2022/07/18 10:26:13;;;;;;;2.25;0.90;;;30.80;51.00;;;;;;6226848;23;20145;-69
2022/07/18 10:29:00;;;;;;;3.15;1.10;;;30.90;51.00;;;;;;6222136;23;20187;-71
2022/07/18 10:31:34;;;;;;;1.77;0.90;;;31.00;50.40;;;;;;6220237;23;20184;-69
2022/07/18 10:34:11;;;;;;;1.45;0.95;;;31.10;52.00;;;;;;6217807;23;20156;-72
2022/07/18 10:36:49;;;;;;;2.35;1.00;;;31.20;50.40;;;;;;6223893;23;20195;-72
2022/07/18 10:39:20;;;;;;;1.25;0.75;;;31.40;50.80;;;;;;6226252;23;20160;-70
2022/07/18 10:41:46;;;;;;;1.65;0.90;;;31.60;51.10;;;;;;6224557;23;20429;-68
2022/07/18 10:44:23;;;;;;;1.10;0.85;;;31.90;51.30;;;;;;6224153;23;20215;-72
2022/07/18 10:49:52;;;;;;;1.52;0.95;;;32.50;48.00;;;;;;6223328;23;20156;-74
2022/07/18 10:52:27;;;;;;;1.25;0.90;;;32.80;49.00;;;;;;6217535;23;20201;-73
2022/07/18 10:57:31;;;;;;;1.25;0.90;;;33.20;46.70;;;;;;6214992;23;20153;-75
2022/07/18 11:00:06;;;;;;;1.75;1.00;;;33.40;48.60;;;;;;6215629;23;20157;-74
2022/07/18 11:02:34;;;;;;;1.52;1.00;;;33.60;47.50;;;;;;6216084;23;20194;-75
2022/07/18 11:05:00;;;;;;;0.70;0.63;;;33.70;48.70;;;;;;6215055;23;20236;-75
2022/07/18 11:07:26;;;;;;;0.93;0.90;;;34.00;48.10;;;;;;6215776;23;20244;-78
2022/07/18 11:09:51;;;;;;;1.80;0.80;;;34.20;47.80;;;;;;6215607;23;20252;-75
2022/07/18 11:12:23;;;;;;;0.85;0.73;;;34.40;47.40;;;;;;6215431;23;20180;-73
2022/07/18 11:15:04;;;;;;;1.25;0.90;;;34.50;46.20;;;;;;6215653;23;20447;-76
2022/07/18 11:17:51;;;;;;;2.83;0.80;;;34.70;46.30;;;;;;6218766;23;20188;-73
2022/07/18 11:20:25;;;;;;;1.60;0.73;;;34.80;43.60;;;;;;6226953;23;20523;-68
2022/07/18 11:22:51;;;;;;;2.35;0.88;;;34.90;45.60;;;;;;6218621;23;20152;-74
2022/07/18 11:25:17;;;;;;;0.82;0.80;;;35.10;46.10;;;;;;6214999;23;20206;-74
2022/07/18 11:27:44;;;;;;;1.00;0.90;;;35.20;46.30;;;;;;6214513;23;20149;-73
2022/07/18 11:30:15;;;;;;;3.33;0.98;;;35.20;45.40;;;;;;6215412;23;20148;-73
2022/07/18 11:32:41;;;;;;;3.05;0.90;;;35.30;45.40;;;;;;6215027;23;20145;-75
2022/07/18 11:35:08;;;;;;;1.38;0.80;;;35.50;45.30;;;;;;6214579;23;20176;-75
2022/07/18 11:37:38;;;;;;;0.90;0.80;;;35.50;44.80;;;;;;6214877;23;20149;-73
2022/07/18 11:40:08;;;;;;;0.80;0.73;;;35.60;44.30;;;;;;6216664;23;20152;-74
2022/07/18 11:42:38;;;;;;;1.65;1.05;;;35.60;43.20;;;;;;6216938;23;20153;-70
2022/07/18 11:45:12;;;;;;;1.48;0.80;;;35.70;43.40;;;;;;6195355;23;20228;-75
2022/07/18 11:47:50;;;;;;;2.75;1.00;;;35.70;42.60;;;;;;6199994;23;20169;-77
2022/07/18 11:50:34;;;;;;;2.40;1.10;;;35.70;42.10;;;;;;6198766;23;20212;-70
2022/07/18 11:53:02;;;;;;;2.22;1.02;;;35.70;41.30;;;;;;6195921;23;20136;-65
2022/07/18 11:55:38;;;;;;;1.40;0.80;;;35.80;43.30;;;;;;6196184;23;20153;-76
2022/07/18 11:58:15;;;;;;;1.70;1.00;;;35.90;42.30;;;;;;6197941;23;20214;-74
2022/07/18 12:00:42;;;;;;;1.77;0.90;;;36.00;42.60;;;;;;6192436;23;20186;-73
2022/07/18 12:03:15;;;;;;;1.13;0.98;;;36.20;43.00;;;;;;6193681;23;20199;-74
2022/07/18 12:05:52;;;;;;;2.40;1.02;;;36.30;42.10;;;;;;6197798;23;20144;-73
2022/07/18 12:08:38;;;;;;;2.05;0.98;;;36.40;39.90;;;;;;6193268;23;20187;-73
2022/07/18 12:11:39;;;;;;;2.47;0.90;;;36.50;40.60;;;;;;6200319;23;20152;-67
2022/07/18 12:14:07;;;;;;;1.73;0.90;;;36.60;39.60;;;;;;6077845;23;20178;-72
2022/07/18 12:16:39;;;;;;;1.30;0.90;;;36.70;41.20;;;;;;6172865;23;20164;-68
2022/07/18 12:19:08;;;;;;;1.83;0.90;;;36.70;40.50;;;;;;6200369;23;20172;-73
2022/07/18 12:21:52;;;;;;;1.40;0.93;;;36.70;41.10;;;;;;6199128;23;20173;-74
2022/07/18 12:24:33;;;;;;;1.58;0.88;;;36.80;39.90;;;;;;6195965;23;20145;-72
2022/07/18 12:27:18;;;;;;;1.27;0.88;;;36.90;39.90;;;;;;6199828;23;20235;-81
2022/07/18 12:29:54;;;;;;;1.10;0.77;;;37.00;38.70;;;;;;6201083;23;20175;-78
2022/07/18 12:32:24;;;;;;;1.10;0.90;;;37.10;39.70;;;;;;6194381;23;20157;-74
2022/07/18 12:35:07;;;;;;;1.55;0.90;;;37.10;40.00;;;;;;6192081;23;20181;-78
2022/07/18 12:37:36;;;;;;;1.27;0.82;;;37.20;39.40;;;;;;6201287;23;20169;-74
2022/07/18 12:40:10;;;;;;;2.00;0.90;;;37.30;40.40;;;;;;6194307;23;20156;-77
2022/07/18 12:42:42;;;;;;;1.50;0.90;;;37.50;39.30;;;;;;6192030;23;20156;-71
2022/07/18 12:45:16;;;;;;;1.08;0.80;;;37.50;39.10;;;;;;6195908;23;20168;-75
2022/07/18 12:47:42;;;;;;;1.00;0.70;;;37.60;39.00;;;;;;6200009;23;20168;-76
2022/07/18 12:50:10;;;;;;;1.50;0.90;;;37.70;39.90;;;;;;6192362;23;20160;-76
2022/07/18 12:52:38;;;;;;;0.88;0.80;;;37.80;39.10;;;;;;6196835;23;20152;-77
2022/07/18 12:55:06;;;;;;;1.33;0.90;;;37.90;38.80;;;;;;6196363;23;20180;-76
2022/07/18 12:57:32;;;;;;;2.72;0.95;;;38.00;39.00;;;;;;6190543;23;20179;-81
2022/07/18 13:00:00;;;;;;;1.58;1.00;;;38.10;38.80;;;;;;6195679;23;20210;-75